Time,TemperatureF,DewpointF,PressureIn,WindDirection,WindDirectionDegrees,WindSpeedMPH,WindSpeedGustMPH,Humidity,HourlyPrecipIn,Conditions,Clouds,dailyrainin,SolarRadiationWatts/m^2,SoftwareType,DateUTC
2013-06-17 00:00:00,72.6,69.8,30.01,SSE,157,0.0,0.0,91,0.00,,OVC018,0.00,0.00,VWS V14.00,2013-06-17 04:00:00,
2013-06-17 01:00:00,74.2,69.4,30.00,SSE,149,6.0,6.0,85,0.00,,OVC018,0.00,0.00,VWS V14.00,2013-06-17 05:00:00,
2013-06-17 02:00:00,74.6,68.4,30.02,NNW,331,0.0,0.0,81,0.00,,OVC018,0.00,0.00,VWS V14.00,2013-06-17 06:00:00,
2013-06-17 03:00:00,72.4,67.6,30.02,West,259,0.0,0.0,85,0.00,,OVC018,0.00,0.00,VWS V14.00,2013-06-17 07:00:00,
2013-06-17 04:00:00,69.3,67.2,30.01,West,259,0.0,0.0,93,0.00,,OVC018,0.00,0.00,VWS V14.00,2013-06-17 08:00:00,
2013-06-17 05:00:00,68.8,67.3,30.00,West,259,0.0,0.0,95,0.00,,OVC018,0.00,0.00,VWS V14.00,2013-06-17 09:00:00,
2013-06-17 06:00:00,68.3,66.8,30.03,ESE,104,0.0,0.0,95,0.02,,OVC018,0.02,9.00,VWS V14.00,2013-06-17 10:00:00,
2013-06-17 07:00:00,68.2,66.7,30.02,NW,311,0.0,0.0,95,0.07,,OVC018,0.07,14.00,VWS V14.00,2013-06-17 11:00:00,
2013-06-17 08:00:00,69.2,67.7,30.01,SW,229,1.0,1.0,95,0.08,,OVC018,0.10,123.00,VWS V14.00,2013-06-17 12:00:00,
2013-06-17 09:00:00,72.3,69.8,30.00,West,280,0.0,0.0,92,0.03,,OVC018,0.10,652.00,VWS V14.00,2013-06-17 13:00:00,
2013-06-17 10:00:00,77.5,72.3,29.99,NW,324,0.0,1.0,84,0.00,,OVC018,0.10,563.00,VWS V14.00,2013-06-17 14:00:00,
2013-06-17 11:00:00,81.0,73.1,29.99,West,274,0.0,0.0,77,0.00,,OVC018,0.10,796.00,VWS V14.00,2013-06-17 15:00:00,
2013-06-17 12:00:00,82.5,72.6,29.97,SSW,212,2.0,7.0,72,0.00,,OVC018,0.10,914.00,VWS V14.00,2013-06-17 16:00:00,
2013-06-17 13:00:00,84.1,74.1,29.97,East,83,0.0,0.0,72,0.00,,OVC018,0.10,434.00,VWS V14.00,2013-06-17 17:00:00,
2013-06-17 14:00:00,86.1,74.8,29.92,WSW,240,7.0,9.0,69,0.00,,OVC018,0.10,823.00,VWS V14.00,2013-06-17 18:00:00,
2013-06-17 15:00:00,79.8,71.9,29.93,SW,231,5.0,5.0,77,0.00,,OVC018,0.10,355.00,VWS V14.00,2013-06-17 19:00:00,
2013-06-17 16:00:00,79.9,73.2,29.91,SW,227,1.0,1.0,80,0.00,,OVC018,0.10,786.00,VWS V14.00,2013-06-17 20:00:00,
2013-06-17 17:00:00,81.9,74.0,29.90,SSE,165,0.0,0.0,77,0.00,,OVC018,0.10,221.00,VWS V14.00,2013-06-17 21:00:00,
2013-06-17 18:00:00,80.6,75.3,29.92,South,181,0.0,0.0,84,0.00,,OVC018,0.10,76.00,VWS V14.00,2013-06-17 22:00:00,
2013-06-17 19:00:00,72.0,70.2,29.97,SE,137,0.0,0.0,94,0.06,,OVC018,0.16,0.00,VWS V14.00,2013-06-17 23:00:00,
2013-06-17 20:00:00,71.1,69.9,29.95,SE,132,0.0,0.0,96,0.06,,OVC018,0.16,0.00,VWS V14.00,2013-06-18 00:00:00,
2013-06-17 21:00:00,70.7,69.5,29.96,South,190,0.0,0.0,96,0.01,,OVC018,0.17,0.00,VWS V14.00,2013-06-18 01:00:00,
2013-06-17 22:00:00,71.4,70.2,29.97,SSW,197,0.0,0.0,96,0.01,,OVC018,0.17,0.00,VWS V14.00,2013-06-18 02:00:00,
2013-06-17 23:00:00,71.1,69.9,29.90,NNE,28,0.0,0.0,96,0.00,,OVC018,0.17,0.00,VWS V14.00,2013-06-18 03:00:00,